sensor_id;sensor_type;location;lat;lon;timestamp;P1;durP1;ratioP1;P2;durP2;ratioP2
10045;SDS011;5063;50.878;4.742;2024-03-08T00:00:19;19.37;;;12.73;;
10045;SDS011;5063;50.878;4.742;2024-03-08T00:02:46;20.40;;;13.50;;
10045;SDS011;5063;50.878;4.742;2024-03-08T00:05:12;23.43;;;12.53;;
10045;SDS011;5063;50.878;4.742;2024-03-08T00:07:39;22.30;;;13.00;;
10045;SDS011;5063;50.878;4.742;2024-03-08T00:10:06;21.57;;;13.30;;
10045;SDS011;5063;50.878;4.742;2024-03-08T00:12:45;22.37;;;13.67;;
10045;SDS011;5063;50.878;4.742;2024-03-08T00:15:15;22.07;;;13.10;;
10045;SDS011;5063;50.878;4.742;2024-03-08T00:17:41;22.43;;;13.77;;
10045;SDS011;5063;50.878;4.742;2024-03-08T00:20:08;22.73;;;12.87;;
10045;SDS011;5063;50.878;4.742;2024-03-08T00:22:34;24.50;;;14.27;;
10045;SDS011;5063;50.878;4.742;2024-03-08T00:25:01;21.10;;;13.73;;
10045;SDS011;5063;50.878;4.742;2024-03-08T00:27:27;20.13;;;13.23;;
10045;SDS011;5063;50.878;4.742;2024-03-08T00:29:55;23.20;;;14.87;;
10045;SDS011;5063;50.878;4.742;2024-03-08T00:32:21;21.73;;;14.07;;
10045;SDS011;5063;50.878;4.742;2024-03-08T00:34:50;24.00;;;14.87;;
10045;SDS011;5063;50.878;4.742;2024-03-08T00:37:19;21.40;;;13.43;;
10045;SDS011;5063;50.878;4.742;2024-03-08T00:39:47;21.13;;;13.97;;
10045;SDS011;5063;50.878;4.742;2024-03-08T00:42:14;21.97;;;14.27;;
10045;SDS011;5063;50.878;4.742;2024-03-08T00:44:44;22.50;;;15.77;;
10045;SDS011;5063;50.878;4.742;2024-03-08T00:47:10;24.70;;;15.80;;
10045;SDS011;5063;50.878;4.742;2024-03-08T00:49:36;23.23;;;13.90;;
10045;SDS011;5063;50.878;4.742;2024-03-08T00:52:03;21.70;;;14.17;;
10045;SDS011;5063;50.878;4.742;2024-03-08T00:54:33;23.20;;;14.53;;
10045;SDS011;5063;50.878;4.742;2024-03-08T00:57:01;23.63;;;15.63;;
10045;SDS011;5063;50.878;4.742;2024-03-08T00:59:31;22.70;;;15.17;;
10045;SDS011;5063;50.878;4.742;2024-03-08T01:01:58;21.67;;;14.23;;
10045;SDS011;5063;50.878;4.742;2024-03-08T01:04:25;23.03;;;15.27;;
10045;SDS011;5063;50.878;4.742;2024-03-08T01:06:54;22.13;;;15.00;;
10045;SDS011;5063;50.878;4.742;2024-03-08T01:09:23;20.10;;;13.70;;
10045;SDS011;5063;50.878;4.742;2024-03-08T01:11:49;25.23;;;15.53;;
10045;SDS011;5063;50.878;4.742;2024-03-08T01:14:15;23.93;;;15.60;;
10045;SDS011;5063;50.878;4.742;2024-03-08T01:16:41;21.03;;;14.17;;
10045;SDS011;5063;50.878;4.742;2024-03-08T01:19:07;23.13;;;15.27;;
10045;SDS011;5063;50.878;4.742;2024-03-08T01:21:33;24.93;;;16.10;;
10045;SDS011;5063;50.878;4.742;2024-03-08T01:23:59;26.20;;;15.47;;
10045;SDS011;5063;50.878;4.742;2024-03-08T01:26:25;25.93;;;16.03;;
10045;SDS011;5063;50.878;4.742;2024-03-08T01:28:51;23.80;;;15.87;;
10045;SDS011;5063;50.878;4.742;2024-03-08T01:31:17;22.83;;;15.63;;
10045;SDS011;5063;50.878;4.742;2024-03-08T01:33:42;22.13;;;15.53;;
10045;SDS011;5063;50.878;4.742;2024-03-08T01:36:08;20.37;;;14.73;;
10045;SDS011;5063;50.878;4.742;2024-03-08T01:38:34;23.00;;;14.93;;
10045;SDS011;5063;50.878;4.742;2024-03-08T01:41:01;25.70;;;16.10;;
10045;SDS011;5063;50.878;4.742;2024-03-08T01:43:28;22.40;;;16.30;;
10045;SDS011;5063;50.878;4.742;2024-03-08T01:45:54;23.83;;;16.37;;
10045;SDS011;5063;50.878;4.742;2024-03-08T01:48:23;24.17;;;15.87;;
10045;SDS011;5063;50.878;4.742;2024-03-08T01:50:50;22.53;;;15.93;;
10045;SDS011;5063;50.878;4.742;2024-03-08T01:53:17;23.30;;;15.87;;
10045;SDS011;5063;50.878;4.742;2024-03-08T01:55:47;22.10;;;16.03;;
10045;SDS011;5063;50.878;4.742;2024-03-08T01:58:14;25.40;;;16.63;;
10045;SDS011;5063;50.878;4.742;2024-03-08T02:00:41;26.63;;;16.27;;
10045;SDS011;5063;50.878;4.742;2024-03-08T02:03:09;21.77;;;16.23;;
10045;SDS011;5063;50.878;4.742;2024-03-08T02:05:39;20.03;;;15.67;;
10045;SDS011;5063;50.878;4.742;2024-03-08T02:08:06;20.50;;;16.20;;
10045;SDS011;5063;50.878;4.742;2024-03-08T02:10:38;21.33;;;16.47;;
10045;SDS011;5063;50.878;4.742;2024-03-08T02:13:04;22.43;;;17.07;;
10045;SDS011;5063;50.878;4.742;2024-03-08T02:18:15;24.30;;;15.40;;
10045;SDS011;5063;50.878;4.742;2024-03-08T02:20:42;24.90;;;16.27;;
10045;SDS011;5063;50.878;4.742;2024-03-08T02:23:08;23.43;;;17.03;;
10045;SDS011;5063;50.878;4.742;2024-03-08T02:25:34;25.10;;;17.43;;
10045;SDS011;5063;50.878;4.742;2024-03-08T02:28:01;27.13;;;17.00;;
10045;SDS011;5063;50.878;4.742;2024-03-08T02:30:26;24.73;;;16.23;;
10045;SDS011;5063;50.878;4.742;2024-03-08T02:32:55;24.83;;;17.07;;
10045;SDS011;5063;50.878;4.742;2024-03-08T02:35:21;21.43;;;16.23;;
10045;SDS011;5063;50.878;4.742;2024-03-08T02:37:47;22.50;;;16.37;;
10045;SDS011;5063;50.878;4.742;2024-03-08T02:40:13;24.23;;;17.23;;
10045;SDS011;5063;50.878;4.742;2024-03-08T02:42:39;25.97;;;17.30;;
10045;SDS011;5063;50.878;4.742;2024-03-08T02:45:05;24.90;;;17.60;;
10045;SDS011;5063;50.878;4.742;2024-03-08T02:47:31;24.33;;;17.83;;
10045;SDS011;5063;50.878;4.742;2024-03-08T02:49:57;25.53;;;17.47;;
10045;SDS011;5063;50.878;4.742;2024-03-08T02:52:23;24.73;;;17.30;;
10045;SDS011;5063;50.878;4.742;2024-03-08T02:54:48;24.27;;;17.87;;
10045;SDS011;5063;50.878;4.742;2024-03-08T02:57:15;23.93;;;17.43;;
10045;SDS011;5063;50.878;4.742;2024-03-08T02:59:41;26.53;;;18.33;;
10045;SDS011;5063;50.878;4.742;2024-03-08T03:02:07;26.30;;;17.33;;
10045;SDS011;5063;50.878;4.742;2024-03-08T03:04:35;24.33;;;17.43;;
10045;SDS011;5063;50.878;4.742;2024-03-08T03:07:01;26.00;;;17.80;;
10045;SDS011;5063;50.878;4.742;2024-03-08T03:09:26;24.33;;;17.40;;
10045;SDS011;5063;50.878;4.742;2024-03-08T03:11:53;24.93;;;17.33;;
10045;SDS011;5063;50.878;4.742;2024-03-08T03:14:23;24.00;;;18.70;;
10045;SDS011;5063;50.878;4.742;2024-03-08T03:16:49;27.97;;;18.27;;
10045;SDS011;5063;50.878;4.742;2024-03-08T03:19:15;25.47;;;18.27;;
10045;SDS011;5063;50.878;4.742;2024-03-08T03:21:41;27.70;;;18.83;;
10045;SDS011;5063;50.878;4.742;2024-03-08T03:24:08;25.67;;;17.40;;
10045;SDS011;5063;50.878;4.742;2024-03-08T03:26:38;24.50;;;18.23;;
10045;SDS011;5063;50.878;4.742;2024-03-08T03:29:05;23.13;;;17.37;;
10045;SDS011;5063;50.878;4.742;2024-03-08T03:31:33;24.77;;;18.70;;
10045;SDS011;5063;50.878;4.742;2024-03-08T03:34:00;23.13;;;17.83;;
10045;SDS011;5063;50.878;4.742;2024-03-08T03:36:32;23.07;;;16.67;;
10045;SDS011;5063;50.878;4.742;2024-03-08T03:39:00;25.80;;;18.57;;
10045;SDS011;5063;50.878;4.742;2024-03-08T03:41:38;27.13;;;19.33;;
10045;SDS011;5063;50.878;4.742;2024-03-08T03:44:04;27.43;;;17.47;;
10045;SDS011;5063;50.878;4.742;2024-03-08T03:46:32;26.40;;;17.83;;
10045;SDS011;5063;50.878;4.742;2024-03-08T03:48:58;24.73;;;18.10;;
10045;SDS011;5063;50.878;4.742;2024-03-08T03:51:24;25.60;;;19.57;;
10045;SDS011;5063;50.878;4.742;2024-03-08T03:53:50;27.00;;;18.33;;
10045;SDS011;5063;50.878;4.742;2024-03-08T03:56:16;27.00;;;19.00;;
10045;SDS011;5063;50.878;4.742;2024-03-08T03:58:42;26.10;;;19.30;;
10045;SDS011;5063;50.878;4.742;2024-03-08T04:01:07;27.53;;;18.33;;
10045;SDS011;5063;50.878;4.742;2024-03-08T04:03:35;27.70;;;19.40;;
10045;SDS011;5063;50.878;4.742;2024-03-08T04:06:02;25.47;;;18.77;;
10045;SDS011;5063;50.878;4.742;2024-03-08T04:08:31;25.20;;;18.57;;
10045;SDS011;5063;50.878;4.742;2024-03-08T04:10:59;23.30;;;17.97;;
10045;SDS011;5063;50.878;4.742;2024-03-08T04:13:25;24.43;;;18.47;;
10045;SDS011;5063;50.878;4.742;2024-03-08T04:15:51;24.87;;;17.60;;
10045;SDS011;5063;50.878;4.742;2024-03-08T04:18:17;26.07;;;18.53;;
10045;SDS011;5063;50.878;4.742;2024-03-08T04:20:46;27.23;;;18.67;;
10045;SDS011;5063;50.878;4.742;2024-03-08T04:23:11;26.47;;;18.17;;
10045;SDS011;5063;50.878;4.742;2024-03-08T04:25:37;21.90;;;17.03;;
10045;SDS011;5063;50.878;4.742;2024-03-08T04:28:03;24.13;;;17.70;;
10045;SDS011;5063;50.878;4.742;2024-03-08T04:30:29;27.50;;;17.27;;
10045;SDS011;5063;50.878;4.742;2024-03-08T04:32:55;23.20;;;17.47;;
10045;SDS011;5063;50.878;4.742;2024-03-08T04:35:21;24.83;;;18.83;;
10045;SDS011;5063;50.878;4.742;2024-03-08T04:37:46;29.07;;;18.50;;
10045;SDS011;5063;50.878;4.742;2024-03-08T04:40:12;25.10;;;18.27;;
10045;SDS011;5063;50.878;4.742;2024-03-08T04:42:39;28.47;;;17.73;;
10045;SDS011;5063;50.878;4.742;2024-03-08T04:45:08;24.57;;;17.33;;
10045;SDS011;5063;50.878;4.742;2024-03-08T04:47:36;26.73;;;17.10;;
10045;SDS011;5063;50.878;4.742;2024-03-08T04:50:02;25.33;;;17.87;;
10045;SDS011;5063;50.878;4.742;2024-03-08T04:52:29;28.90;;;17.33;;
10045;SDS011;5063;50.878;4.742;2024-03-08T04:54:55;24.67;;;17.50;;
10045;SDS011;5063;50.878;4.742;2024-03-08T04:57:21;26.87;;;19.17;;
10045;SDS011;5063;50.878;4.742;2024-03-08T04:59:47;28.40;;;17.97;;
10045;SDS011;5063;50.878;4.742;2024-03-08T05:02:13;27.87;;;18.17;;
10045;SDS011;5063;50.878;4.742;2024-03-08T05:04:39;26.73;;;16.90;;
10045;SDS011;5063;50.878;4.742;2024-03-08T05:07:05;25.30;;;17.23;;
10045;SDS011;5063;50.878;4.742;2024-03-08T05:09:30;26.77;;;17.77;;
10045;SDS011;5063;50.878;4.742;2024-03-08T05:11:56;23.77;;;17.13;;
10045;SDS011;5063;50.878;4.742;2024-03-08T05:14:24;24.20;;;17.53;;
10045;SDS011;5063;50.878;4.742;2024-03-08T05:16:50;24.50;;;17.40;;
10045;SDS011;5063;50.878;4.742;2024-03-08T05:19:16;23.50;;;17.80;;
10045;SDS011;5063;50.878;4.742;2024-03-08T05:21:43;27.17;;;16.97;;
10045;SDS011;5063;50.878;4.742;2024-03-08T05:24:10;27.53;;;17.40;;
10045;SDS011;5063;50.878;4.742;2024-03-08T05:26:36;26.30;;;18.03;;
10045;SDS011;5063;50.878;4.742;2024-03-08T05:29:04;25.67;;;17.80;;
10045;SDS011;5063;50.878;4.742;2024-03-08T05:31:36;26.70;;;17.83;;
10045;SDS011;5063;50.878;4.742;2024-03-08T05:34:10;27.63;;;17.60;;
10045;SDS011;5063;50.878;4.742;2024-03-08T05:36:39;25.13;;;17.53;;
10045;SDS011;5063;50.878;4.742;2024-03-08T05:39:06;26.00;;;18.07;;
10045;SDS011;5063;50.878;4.742;2024-03-08T05:41:32;27.90;;;17.73;;
10045;SDS011;5063;50.878;4.742;2024-03-08T05:43:58;27.67;;;17.27;;
10045;SDS011;5063;50.878;4.742;2024-03-08T05:46:23;27.23;;;18.37;;
10045;SDS011;5063;50.878;4.742;2024-03-08T05:48:50;28.23;;;18.07;;
10045;SDS011;5063;50.878;4.742;2024-03-08T05:51:16;26.00;;;18.07;;
10045;SDS011;5063;50.878;4.742;2024-03-08T05:53:42;27.53;;;18.53;;
10045;SDS011;5063;50.878;4.742;2024-03-08T05:56:08;29.57;;;19.07;;
10045;SDS011;5063;50.878;4.742;2024-03-08T05:58:34;27.73;;;17.53;;
10045;SDS011;5063;50.878;4.742;2024-03-08T06:01:00;28.77;;;18.47;;
10045;SDS011;5063;50.878;4.742;2024-03-08T06:03:26;27.30;;;18.47;;
10045;SDS011;5063;50.878;4.742;2024-03-08T06:05:51;29.23;;;19.50;;
10045;SDS011;5063;50.878;4.742;2024-03-08T06:08:17;26.13;;;17.33;;
10045;SDS011;5063;50.878;4.742;2024-03-08T06:10:44;28.03;;;19.13;;
10045;SDS011;5063;50.878;4.742;2024-03-08T06:13:10;28.60;;;18.33;;
10045;SDS011;5063;50.878;4.742;2024-03-08T06:15:37;27.93;;;17.60;;
10045;SDS011;5063;50.878;4.742;2024-03-08T06:18:03;28.50;;;19.43;;
10045;SDS011;5063;50.878;4.742;2024-03-08T06:20:30;25.80;;;17.57;;
10045;SDS011;5063;50.878;4.742;2024-03-08T06:22:56;27.33;;;18.57;;
10045;SDS011;5063;50.878;4.742;2024-03-08T06:25:22;29.73;;;18.73;;
10045;SDS011;5063;50.878;4.742;2024-03-08T06:27:48;30.10;;;18.57;;
10045;SDS011;5063;50.878;4.742;2024-03-08T06:30:13;26.27;;;17.73;;
10045;SDS011;5063;50.878;4.742;2024-03-08T06:32:41;25.37;;;16.87;;
10045;SDS011;5063;50.878;4.742;2024-03-08T06:35:08;30.83;;;18.57;;
10045;SDS011;5063;50.878;4.742;2024-03-08T06:37:35;27.07;;;18.33;;
10045;SDS011;5063;50.878;4.742;2024-03-08T06:40:01;26.80;;;18.80;;
10045;SDS011;5063;50.878;4.742;2024-03-08T06:42:28;25.47;;;18.23;;
10045;SDS011;5063;50.878;4.742;2024-03-08T06:44:57;27.03;;;16.60;;
10045;SDS011;5063;50.878;4.742;2024-03-08T06:47:29;28.27;;;18.43;;
10045;SDS011;5063;50.878;4.742;2024-03-08T06:49:55;25.77;;;17.63;;
10045;SDS011;5063;50.878;4.742;2024-03-08T06:52:21;26.60;;;17.43;;
10045;SDS011;5063;50.878;4.742;2024-03-08T06:54:47;29.83;;;19.03;;
10045;SDS011;5063;50.878;4.742;2024-03-08T06:57:14;25.37;;;17.87;;
10045;SDS011;5063;50.878;4.742;2024-03-08T06:59:41;27.87;;;18.57;;
10045;SDS011;5063;50.878;4.742;2024-03-08T07:02:07;28.13;;;17.83;;
10045;SDS011;5063;50.878;4.742;2024-03-08T07:04:34;25.63;;;17.80;;
10045;SDS011;5063;50.878;4.742;2024-03-08T07:07:06;26.63;;;16.23;;
10045;SDS011;5063;50.878;4.742;2024-03-08T07:09:38;25.90;;;17.10;;
10045;SDS011;5063;50.878;4.742;2024-03-08T07:12:04;27.57;;;17.90;;
10045;SDS011;5063;50.878;4.742;2024-03-08T07:14:30;25.93;;;16.67;;
10045;SDS011;5063;50.878;4.742;2024-03-08T07:16:58;26.07;;;17.03;;
10045;SDS011;5063;50.878;4.742;2024-03-08T07:19:24;27.77;;;17.03;;
10045;SDS011;5063;50.878;4.742;2024-03-08T07:21:49;21.70;;;16.17;;
10045;SDS011;5063;50.878;4.742;2024-03-08T07:24:15;24.40;;;16.10;;
10045;SDS011;5063;50.878;4.742;2024-03-08T07:27:03;27.80;;;16.93;;
10045;SDS011;5063;50.878;4.742;2024-03-08T07:29:30;23.67;;;16.73;;
10045;SDS011;5063;50.878;4.742;2024-03-08T07:31:56;25.33;;;16.73;;
10045;SDS011;5063;50.878;4.742;2024-03-08T07:34:28;22.23;;;15.97;;
10045;SDS011;5063;50.878;4.742;2024-03-08T07:36:57;27.47;;;16.73;;
10045;SDS011;5063;50.878;4.742;2024-03-08T07:39:24;30.73;;;16.90;;
10045;SDS011;5063;50.878;4.742;2024-03-08T07:41:50;23.33;;;16.40;;
10045;SDS011;5063;50.878;4.742;2024-03-08T07:44:18;21.17;;;15.47;;
10045;SDS011;5063;50.878;4.742;2024-03-08T07:46:44;24.47;;;16.03;;
10045;SDS011;5063;50.878;4.742;2024-03-08T07:49:09;22.13;;;15.53;;
10045;SDS011;5063;50.878;4.742;2024-03-08T07:51:39;22.80;;;15.27;;
10045;SDS011;5063;50.878;4.742;2024-03-08T07:54:06;24.00;;;15.30;;
10045;SDS011;5063;50.878;4.742;2024-03-08T07:56:34;23.20;;;16.90;;
10045;SDS011;5063;50.878;4.742;2024-03-08T07:59:02;26.23;;;16.10;;
10045;SDS011;5063;50.878;4.742;2024-03-08T08:01:29;24.83;;;16.27;;
10045;SDS011;5063;50.878;4.742;2024-03-08T08:03:56;23.00;;;16.20;;
10045;SDS011;5063;50.878;4.742;2024-03-08T08:06:22;22.33;;;15.07;;
10045;SDS011;5063;50.878;4.742;2024-03-08T08:08:48;22.33;;;16.03;;
10045;SDS011;5063;50.878;4.742;2024-03-08T08:11:14;24.37;;;15.37;;
10045;SDS011;5063;50.878;4.742;2024-03-08T08:13:42;23.90;;;15.23;;
10045;SDS011;5063;50.878;4.742;2024-03-08T08:16:08;27.10;;;15.43;;
10045;SDS011;5063;50.878;4.742;2024-03-08T08:18:35;25.27;;;15.83;;
10045;SDS011;5063;50.878;4.742;2024-03-08T08:21:05;22.63;;;15.17;;
10045;SDS011;5063;50.878;4.742;2024-03-08T08:23:32;23.50;;;15.03;;
10045;SDS011;5063;50.878;4.742;2024-03-08T08:25:57;22.50;;;15.87;;
10045;SDS011;5063;50.878;4.742;2024-03-08T08:28:24;22.00;;;15.83;;
10045;SDS011;5063;50.878;4.742;2024-03-08T08:30:50;21.83;;;16.20;;
10045;SDS011;5063;50.878;4.742;2024-03-08T08:33:16;19.17;;;13.57;;
10045;SDS011;5063;50.878;4.742;2024-03-08T08:35:42;21.80;;;14.33;;
10045;SDS011;5063;50.878;4.742;2024-03-08T08:38:08;22.33;;;15.00;;
10045;SDS011;5063;50.878;4.742;2024-03-08T08:40:34;22.20;;;15.60;;
10045;SDS011;5063;50.878;4.742;2024-03-08T08:43:01;21.70;;;14.90;;
10045;SDS011;5063;50.878;4.742;2024-03-08T08:45:30;19.13;;;15.13;;
10045;SDS011;5063;50.878;4.742;2024-03-08T08:47:56;22.87;;;15.27;;
10045;SDS011;5063;50.878;4.742;2024-03-08T08:50:24;20.67;;;14.83;;
10045;SDS011;5063;50.878;4.742;2024-03-08T08:52:50;23.80;;;14.40;;
10045;SDS011;5063;50.878;4.742;2024-03-08T08:55:16;21.27;;;14.17;;
10045;SDS011;5063;50.878;4.742;2024-03-08T08:57:46;19.00;;;14.57;;
10045;SDS011;5063;50.878;4.742;2024-03-08T09:00:13;22.07;;;14.97;;
10045;SDS011;5063;50.878;4.742;2024-03-08T09:02:41;23.60;;;15.47;;
10045;SDS011;5063;50.878;4.742;2024-03-08T09:05:07;21.87;;;14.90;;
10045;SDS011;5063;50.878;4.742;2024-03-08T09:07:33;23.17;;;15.77;;
10045;SDS011;5063;50.878;4.742;2024-03-08T09:10:02;24.93;;;15.03;;
10045;SDS011;5063;50.878;4.742;2024-03-08T09:12:29;18.80;;;13.20;;
10045;SDS011;5063;50.878;4.742;2024-03-08T09:14:55;17.87;;;12.87;;
10045;SDS011;5063;50.878;4.742;2024-03-08T09:17:20;21.87;;;14.97;;
10045;SDS011;5063;50.878;4.742;2024-03-08T09:19:47;23.87;;;14.80;;
10045;SDS011;5063;50.878;4.742;2024-03-08T09:22:13;22.43;;;14.63;;
10045;SDS011;5063;50.878;4.742;2024-03-08T09:24:39;20.13;;;14.23;;
10045;SDS011;5063;50.878;4.742;2024-03-08T09:27:05;22.50;;;14.27;;
10045;SDS011;5063;50.878;4.742;2024-03-08T09:29:31;17.53;;;13.20;;
10045;SDS011;5063;50.878;4.742;2024-03-08T09:31:56;21.30;;;14.23;;
10045;SDS011;5063;50.878;4.742;2024-03-08T09:34:22;18.70;;;14.23;;
10045;SDS011;5063;50.878;4.742;2024-03-08T09:36:48;24.70;;;14.17;;
10045;SDS011;5063;50.878;4.742;2024-03-08T09:39:17;18.43;;;13.57;;
10045;SDS011;5063;50.878;4.742;2024-03-08T09:41:46;17.63;;;13.60;;
10045;SDS011;5063;50.878;4.742;2024-03-08T09:44:15;19.90;;;13.67;;
10045;SDS011;5063;50.878;4.742;2024-03-08T09:46:47;17.07;;;13.10;;
10045;SDS011;5063;50.878;4.742;2024-03-08T09:49:16;19.37;;;13.27;;
10045;SDS011;5063;50.878;4.742;2024-03-08T09:51:42;20.50;;;12.73;;
10045;SDS011;5063;50.878;4.742;2024-03-08T09:54:08;19.87;;;13.83;;
10045;SDS011;5063;50.878;4.742;2024-03-08T09:56:37;20.70;;;13.47;;
10045;SDS011;5063;50.878;4.742;2024-03-08T09:59:09;19.80;;;13.50;;
10045;SDS011;5063;50.878;4.742;2024-03-08T10:02:13;19.40;;;13.60;;
10045;SDS011;5063;50.878;4.742;2024-03-08T10:04:40;16.27;;;12.37;;
10045;SDS011;5063;50.878;4.742;2024-03-08T10:07:11;19.13;;;13.30;;
10045;SDS011;5063;50.878;4.742;2024-03-08T10:09:37;18.70;;;13.33;;
10045;SDS011;5063;50.878;4.742;2024-03-08T10:12:04;18.27;;;13.00;;
10045;SDS011;5063;50.878;4.742;2024-03-08T10:14:30;17.70;;;12.63;;
10045;SDS011;5063;50.878;4.742;2024-03-08T10:16:59;17.37;;;12.97;;
10045;SDS011;5063;50.878;4.742;2024-03-08T10:19:26;18.80;;;13.63;;
10045;SDS011;5063;50.878;4.742;2024-03-08T10:21:55;19.17;;;12.17;;
10045;SDS011;5063;50.878;4.742;2024-03-08T10:24:25;21.30;;;14.37;;
10045;SDS011;5063;50.878;4.742;2024-03-08T10:27:00;17.90;;;12.87;;
10045;SDS011;5063;50.878;4.742;2024-03-08T10:29:33;18.87;;;12.97;;
10045;SDS011;5063;50.878;4.742;2024-03-08T10:31:59;19.27;;;13.40;;
10045;SDS011;5063;50.878;4.742;2024-03-08T10:34:24;17.60;;;12.57;;
10045;SDS011;5063;50.878;4.742;2024-03-08T10:36:51;16.80;;;13.33;;
10045;SDS011;5063;50.878;4.742;2024-03-08T10:41:50;17.60;;;11.57;;
10045;SDS011;5063;50.878;4.742;2024-03-08T10:50:18;16.90;;;12.27;;
10045;SDS011;5063;50.878;4.742;2024-03-08T10:52:47;17.40;;;12.83;;
10045;SDS011;5063;50.878;4.742;2024-03-08T10:55:15;16.30;;;12.20;;
10045;SDS011;5063;50.878;4.742;2024-03-08T10:57:42;16.73;;;11.97;;
10045;SDS011;5063;50.878;4.742;2024-03-08T11:00:08;16.77;;;12.83;;
10045;SDS011;5063;50.878;4.742;2024-03-08T11:02:36;18.63;;;12.10;;
10045;SDS011;5063;50.878;4.742;2024-03-08T11:05:07;14.87;;;12.37;;
10045;SDS011;5063;50.878;4.742;2024-03-08T11:07:41;17.70;;;12.93;;
10045;SDS011;5063;50.878;4.742;2024-03-08T11:10:18;19.37;;;12.87;;
10045;SDS011;5063;50.878;4.742;2024-03-08T11:12:44;17.43;;;12.33;;
10045;SDS011;5063;50.878;4.742;2024-03-08T11:15:13;16.60;;;13.17;;
10045;SDS011;5063;50.878;4.742;2024-03-08T11:17:49;17.57;;;13.07;;
10045;SDS011;5063;50.878;4.742;2024-03-08T11:20:16;16.63;;;12.50;;
10045;SDS011;5063;50.878;4.742;2024-03-08T11:28:19;18.40;;;13.13;;
10045;SDS011;5063;50.878;4.742;2024-03-08T11:33:28;20.10;;;12.70;;
10045;SDS011;5063;50.878;4.742;2024-03-08T11:38:43;18.00;;;12.43;;
10045;SDS011;5063;50.878;4.742;2024-03-08T11:41:09;15.97;;;13.33;;
10045;SDS011;5063;50.878;4.742;2024-03-08T11:43:39;18.70;;;12.73;;
10045;SDS011;5063;50.878;4.742;2024-03-08T11:46:10;15.30;;;11.63;;
10045;SDS011;5063;50.878;4.742;2024-03-08T11:48:40;15.30;;;12.33;;
10045;SDS011;5063;50.878;4.742;2024-03-08T11:51:12;19.33;;;13.03;;
10045;SDS011;5063;50.878;4.742;2024-03-08T11:53:40;17.47;;;12.70;;
10045;SDS011;5063;50.878;4.742;2024-03-08T11:56:10;18.73;;;13.10;;
10045;SDS011;5063;50.878;4.742;2024-03-08T11:58:40;16.13;;;12.27;;
10045;SDS011;5063;50.878;4.742;2024-03-08T12:01:10;17.10;;;12.53;;
10045;SDS011;5063;50.878;4.742;2024-03-08T12:03:40;16.33;;;12.17;;
10045;SDS011;5063;50.878;4.742;2024-03-08T12:06:10;17.83;;;12.20;;
10045;SDS011;5063;50.878;4.742;2024-03-08T12:08:36;16.97;;;12.67;;
10045;SDS011;5063;50.878;4.742;2024-03-08T12:11:05;15.17;;;12.03;;
10045;SDS011;5063;50.878;4.742;2024-03-08T12:13:34;14.73;;;12.30;;
10045;SDS011;5063;50.878;4.742;2024-03-08T12:16:03;19.27;;;12.87;;
10045;SDS011;5063;50.878;4.742;2024-03-08T12:18:32;15.90;;;11.30;;
10045;SDS011;5063;50.878;4.742;2024-03-08T12:21:12;15.20;;;11.73;;
10045;SDS011;5063;50.878;4.742;2024-03-08T12:24:05;16.97;;;12.30;;
10045;SDS011;5063;50.878;4.742;2024-03-08T12:26:34;16.17;;;12.00;;
10045;SDS011;5063;50.878;4.742;2024-03-08T12:29:21;17.00;;;12.30;;
10045;SDS011;5063;50.878;4.742;2024-03-08T12:31:53;17.77;;;12.60;;
10045;SDS011;5063;50.878;4.742;2024-03-08T12:34:20;20.33;;;12.47;;
10045;SDS011;5063;50.878;4.742;2024-03-08T12:36:47;17.73;;;11.43;;
10045;SDS011;5063;50.878;4.742;2024-03-08T12:39:16;16.33;;;11.50;;
10045;SDS011;5063;50.878;4.742;2024-03-08T12:41:43;17.20;;;11.97;;
10045;SDS011;5063;50.878;4.742;2024-03-08T12:44:09;15.67;;;11.73;;
10045;SDS011;5063;50.878;4.742;2024-03-08T12:46:39;17.60;;;12.57;;
10045;SDS011;5063;50.878;4.742;2024-03-08T12:49:08;15.53;;;12.50;;
10045;SDS011;5063;50.878;4.742;2024-03-08T12:51:37;19.40;;;12.57;;
10045;SDS011;5063;50.878;4.742;2024-03-08T12:54:07;17.23;;;12.03;;
10045;SDS011;5063;50.878;4.742;2024-03-08T12:56:33;15.23;;;12.03;;
10045;SDS011;5063;50.878;4.742;2024-03-08T12:59:00;16.07;;;12.00;;
10045;SDS011;5063;50.878;4.742;2024-03-08T13:01:28;15.30;;;12.67;;
10045;SDS011;5063;50.878;4.742;2024-03-08T13:03:54;18.23;;;13.07;;
10045;SDS011;5063;50.878;4.742;2024-03-08T13:06:23;18.90;;;12.43;;
10045;SDS011;5063;50.878;4.742;2024-03-08T13:08:50;15.60;;;12.03;;
10045;SDS011;5063;50.878;4.742;2024-03-08T13:11:20;16.60;;;11.90;;
10045;SDS011;5063;50.878;4.742;2024-03-08T13:13:46;17.60;;;11.93;;
10045;SDS011;5063;50.878;4.742;2024-03-08T13:16:12;16.57;;;12.23;;
10045;SDS011;5063;50.878;4.742;2024-03-08T13:18:42;14.70;;;11.93;;
10045;SDS011;5063;50.878;4.742;2024-03-08T13:21:09;19.07;;;12.63;;
10045;SDS011;5063;50.878;4.742;2024-03-08T13:23:40;14.87;;;11.43;;
10045;SDS011;5063;50.878;4.742;2024-03-08T13:26:10;16.27;;;12.43;;
10045;SDS011;5063;50.878;4.742;2024-03-08T13:28:46;14.77;;;11.57;;
10045;SDS011;5063;50.878;4.742;2024-03-08T13:31:19;14.83;;;11.60;;
10045;SDS011;5063;50.878;4.742;2024-03-08T13:33:48;15.70;;;11.97;;
10045;SDS011;5063;50.878;4.742;2024-03-08T13:36:14;13.30;;;11.33;;
10045;SDS011;5063;50.878;4.742;2024-03-08T13:38:49;15.27;;;11.00;;
10045;SDS011;5063;50.878;4.742;2024-03-08T13:41:16;15.27;;;11.47;;
10045;SDS011;5063;50.878;4.742;2024-03-08T13:43:46;14.27;;;11.00;;
10045;SDS011;5063;50.878;4.742;2024-03-08T13:46:15;14.73;;;11.40;;
10045;SDS011;5063;50.878;4.742;2024-03-08T13:48:41;15.40;;;11.23;;
10045;SDS011;5063;50.878;4.742;2024-03-08T13:51:08;13.73;;;11.03;;
10045;SDS011;5063;50.878;4.742;2024-03-08T13:53:37;15.03;;;11.37;;
10045;SDS011;5063;50.878;4.742;2024-03-08T13:56:03;14.90;;;11.37;;
10045;SDS011;5063;50.878;4.742;2024-03-08T13:58:30;16.13;;;11.60;;
10045;SDS011;5063;50.878;4.742;2024-03-08T14:00:56;13.83;;;11.47;;
10045;SDS011;5063;50.878;4.742;2024-03-08T14:03:22;16.00;;;11.10;;
10045;SDS011;5063;50.878;4.742;2024-03-08T14:05:51;14.43;;;11.07;;
10045;SDS011;5063;50.878;4.742;2024-03-08T14:08:17;15.67;;;11.97;;
10045;SDS011;5063;50.878;4.742;2024-03-08T14:10:43;14.83;;;11.80;;
10045;SDS011;5063;50.878;4.742;2024-03-08T14:13:12;16.90;;;12.37;;
10045;SDS011;5063;50.878;4.742;2024-03-08T14:15:38;16.10;;;11.53;;
10045;SDS011;5063;50.878;4.742;2024-03-08T14:18:07;13.13;;;10.83;;
10045;SDS011;5063;50.878;4.742;2024-03-08T14:20:33;17.47;;;11.30;;
10045;SDS011;5063;50.878;4.742;2024-03-08T14:22:59;14.40;;;10.87;;
10045;SDS011;5063;50.878;4.742;2024-03-08T14:25:25;15.17;;;11.63;;
10045;SDS011;5063;50.878;4.742;2024-03-08T14:27:51;15.63;;;11.37;;
10045;SDS011;5063;50.878;4.742;2024-03-08T14:30:19;14.40;;;11.40;;
10045;SDS011;5063;50.878;4.742;2024-03-08T14:33:04;15.80;;;11.23;;
10045;SDS011;5063;50.878;4.742;2024-03-08T14:35:37;14.83;;;11.53;;
10045;SDS011;5063;50.878;4.742;2024-03-08T14:38:03;15.10;;;11.23;;
10045;SDS011;5063;50.878;4.742;2024-03-08T14:40:29;13.67;;;10.43;;
10045;SDS011;5063;50.878;4.742;2024-03-08T14:42:56;14.87;;;10.80;;
10045;SDS011;5063;50.878;4.742;2024-03-08T14:45:22;19.57;;;11.90;;
10045;SDS011;5063;50.878;4.742;2024-03-08T14:47:49;14.70;;;11.50;;
10045;SDS011;5063;50.878;4.742;2024-03-08T14:50:22;12.63;;;10.37;;
10045;SDS011;5063;50.878;4.742;2024-03-08T14:52:49;13.20;;;10.73;;
10045;SDS011;5063;50.878;4.742;2024-03-08T14:55:18;16.13;;;11.27;;
10045;SDS011;5063;50.878;4.742;2024-03-08T14:57:47;16.23;;;10.70;;